Time;durP1;ratioP1;P1;durP2;ratioP2;P2;SDS_P1;SDS_P2;PMS_P1;PMS_P2;Temp;Humidity;BMP_temperature;BMP_pressure;BME280_temperature;BME280_humidity;BME280_pressure;Samples;Min_cycle;Max_cycle;Signal;HPM_P1;HPM_P2
2021/01/25 00:01:21;;;;;;;10.15;4.50;;;;;;;;;;1787117;80;21177;-83
2021/01/25 00:03:47;;;;;;;7.33;4.22;;;;;;;;;;1786857;80;21712;-83
2021/01/25 00:06:13;;;;;;;7.75;4.40;;;;;;;;;;1786796;80;21137;-83
2021/01/25 00:08:40;;;;;;;8.75;4.20;;;;;;;;;;1787041;80;21188;-82
2021/01/25 00:11:06;;;;;;;6.05;4.05;;;;;;;;;;1786812;80;21152;-82
2021/01/25 00:13:32;;;;;;;8.85;4.05;;;;;;;;;;1786894;80;21609;-82
2021/01/25 00:15:58;;;;;;;6.72;4.15;;;;;;;;;;1786778;80;21181;-82
2021/01/25 00:18:24;;;;;;;5.70;3.87;;;;;;;;;;1786983;80;21160;-82
2021/01/25 00:20:50;;;;;;;9.53;4.25;;;;;;;;;;1787373;80;21165;-82
2021/01/25 00:23:17;;;;;;;6.22;4.30;;;;;;;;;;1786986;80;21201;-82
2021/01/25 00:25:43;;;;;;;9.08;4.42;;;;;;;;;;1786873;80;21172;-83
2021/01/25 00:28:09;;;;;;;7.87;4.47;;;;;;;;;;1787185;80;21122;-82
2021/01/25 00:30:35;;;;;;;6.12;4.15;;;;;;;;;;1786906;80;21576;-83
2021/01/25 00:33:01;;;;;;;6.53;3.72;;;;;;;;;;1786783;80;21153;-82
2021/01/25 00:35:27;;;;;;;8.13;4.45;;;;;;;;;;1786985;80;21185;-83
2021/01/25 00:37:54;;;;;;;7.53;4.33;;;;;;;;;;1786745;80;21150;-83
2021/01/25 00:40:20;;;;;;;6.33;4.15;;;;;;;;;;1787021;80;21157;-84
2021/01/25 00:42:46;;;;;;;7.12;4.35;;;;;;;;;;1786840;80;21169;-84
2021/01/25 00:45:12;;;;;;;6.47;4.30;;;;;;;;;;1789024;80;21149;-83
2021/01/25 00:47:39;;;;;;;6.87;4.22;;;;;;;;;;1790260;80;21153;-83
2021/01/25 00:50:05;;;;;;;8.95;4.67;;;;;;;;;;1790059;80;21584;-83
2021/01/25 00:52:31;;;;;;;8.18;4.45;;;;;;;;;;1790400;80;21157;-83
2021/01/25 00:54:58;;;;;;;6.83;4.20;;;;;;;;;;1790021;80;21172;-82
2021/01/25 00:57:24;;;;;;;5.72;4.20;;;;;;;;;;1790294;80;21166;-82
2021/01/25 00:59:50;;;;;;;6.12;4.17;;;;;;;;;;1790150;80;21589;-82
2021/01/25 01:02:16;;;;;;;7.05;3.83;;;;;;;;;;1790057;80;21145;-82
2021/01/25 01:04:42;;;;;;;6.20;4.00;;;;;;;;;;1790099;80;21561;-81
2021/01/25 01:07:08;;;;;;;5.87;3.98;;;;;;;;;;1789979;80;21180;-83
2021/01/25 01:09:34;;;;;;;7.42;3.95;;;;;;;;;;1790073;80;21148;-83
2021/01/25 01:12:00;;;;;;;6.00;4.12;;;;;;;;;;1790106;80;21118;-83
2021/01/25 01:14:27;;;;;;;7.12;4.00;;;;;;;;;;1790332;80;21180;-83
2021/01/25 01:16:53;;;;;;;5.90;3.47;;;;;;;;;;1790084;80;21593;-83
2021/01/25 01:19:19;;;;;;;5.67;3.98;;;;;;;;;;1790180;80;21212;-83
2021/01/25 01:21:45;;;;;;;6.90;4.22;;;;;;;;;;1790042;80;21161;-83
2021/01/25 01:24:13;;;;;;;7.72;4.78;;;;;;;;;;1790021;80;21165;-83
2021/01/25 01:26:44;;;;;;;8.28;4.58;;;;;;;;;;1790373;80;21283;-82
2021/01/25 01:29:10;;;;;;;7.15;4.75;;;;;;;;;;1789118;80;21186;-83
2021/01/25 01:31:36;;;;;;;7.85;4.55;;;;;;;;;;1790332;80;21173;-83
2021/01/25 01:34:03;;;;;;;7.00;4.60;;;;;;;;;;1790054;80;21569;-82
2021/01/25 01:36:29;;;;;;;6.97;4.33;;;;;;;;;;1790209;80;21565;-81
2021/01/25 01:38:56;;;;;;;8.48;4.55;;;;;;;;;;1790095;80;21577;-83
2021/01/25 01:41:22;;;;;;;8.35;4.60;;;;;;;;;;1790209;80;21165;-82
2021/01/25 01:43:48;;;;;;;7.65;4.78;;;;;;;;;;1789944;80;21208;-82
2021/01/25 01:46:14;;;;;;;7.28;4.42;;;;;;;;;;1787051;80;21145;-82
2021/01/25 01:48:40;;;;;;;6.22;4.10;;;;;;;;;;1756229;80;22248;-82
2021/01/25 01:51:06;;;;;;;7.95;4.90;;;;;;;;;;1786692;80;21129;-81
2021/01/25 01:53:32;;;;;;;8.48;5.05;;;;;;;;;;1786745;80;21181;-82
2021/01/25 01:55:59;;;;;;;7.42;4.78;;;;;;;;;;1786952;80;21149;-82
2021/01/25 01:58:25;;;;;;;8.80;4.62;;;;;;;;;;1786756;80;21165;-82
2021/01/25 02:00:51;;;;;;;11.48;5.53;;;;;;;;;;1756016;80;21636;-82
2021/01/25 02:03:19;;;;;;;7.20;4.92;;;;;;;;;;1786646;80;21184;-82
2021/01/25 02:05:45;;;;;;;7.62;4.67;;;;;;;;;;1786959;80;21177;-83
2021/01/25 02:08:11;;;;;;;9.95;4.85;;;;;;;;;;1786790;80;21141;-83
2021/01/25 02:10:37;;;;;;;7.75;4.40;;;;;;;;;;1786681;80;21636;-82
2021/01/25 02:13:03;;;;;;;8.45;4.53;;;;;;;;;;1787018;80;21173;-82
2021/01/25 02:15:30;;;;;;;7.47;4.75;;;;;;;;;;1786814;80;21604;-83
2021/01/25 02:17:56;;;;;;;8.58;4.30;;;;;;;;;;1786684;80;21615;-82
2021/01/25 02:20:25;;;;;;;8.65;4.35;;;;;;;;;;1786782;80;21254;-83
2021/01/25 02:22:52;;;;;;;9.20;4.50;;;;;;;;;;1786966;80;21164;-82
2021/01/25 02:25:36;;;;;;;8.18;4.62;;;;;;;;;;1785362;80;21142;-83
2021/01/25 02:28:02;;;;;;;10.08;5.40;;;;;;;;;;1787022;80;21221;-83
2021/01/25 02:30:28;;;;;;;8.28;3.87;;;;;;;;;;1787000;80;21129;-82
2021/01/25 02:32:54;;;;;;;8.48;3.80;;;;;;;;;;1786768;80;21158;-82
2021/01/25 02:35:21;;;;;;;8.48;3.95;;;;;;;;;;1756372;80;21174;-83
2021/01/25 02:37:49;;;;;;;10.08;5.10;;;;;;;;;;1756344;80;21160;-83
2021/01/25 02:40:15;;;;;;;7.97;4.33;;;;;;;;;;1786913;80;21165;-82
2021/01/25 02:42:42;;;;;;;8.08;4.58;;;;;;;;;;1786837;80;21148;-82
2021/01/25 02:45:08;;;;;;;8.18;4.92;;;;;;;;;;1788611;80;21193;-82
2021/01/25 02:47:35;;;;;;;9.20;4.95;;;;;;;;;;1790451;80;21169;-82
2021/01/25 02:50:02;;;;;;;7.75;4.20;;;;;;;;;;1790223;80;21153;-82
2021/01/25 02:52:28;;;;;;;7.42;4.72;;;;;;;;;;1790113;80;21184;-83
2021/01/25 02:54:55;;;;;;;12.25;4.70;;;;;;;;;;1790138;80;21172;-82
2021/01/25 02:57:21;;;;;;;7.75;4.28;;;;;;;;;;1790149;80;21601;-83
2021/01/25 02:59:47;;;;;;;8.93;4.60;;;;;;;;;;1790078;80;21172;-82
2021/01/25 03:02:14;;;;;;;6.65;4.00;;;;;;;;;;1790326;80;21736;-82
2021/01/25 03:04:40;;;;;;;7.45;4.75;;;;;;;;;;1790171;80;21153;-82
2021/01/25 03:07:06;;;;;;;7.80;4.70;;;;;;;;;;1790234;80;21149;-82
2021/01/25 03:09:33;;;;;;;7.55;3.90;;;;;;;;;;1790268;80;21172;-83
2021/01/25 03:12:01;;;;;;;7.00;4.45;;;;;;;;;;1790193;80;21165;-83
2021/01/25 03:14:27;;;;;;;8.88;4.00;;;;;;;;;;1790178;80;21153;-83
2021/01/25 03:16:53;;;;;;;7.60;3.90;;;;;;;;;;1790068;80;21181;-83
2021/01/25 03:19:19;;;;;;;8.35;4.60;;;;;;;;;;1790266;80;21620;-82
2021/01/25 03:21:47;;;;;;;7.00;3.65;;;;;;;;;;1790489;80;21216;-83
2021/01/25 03:24:13;;;;;;;8.78;4.20;;;;;;;;;;1789435;80;21311;-82
2021/01/25 03:26:39;;;;;;;9.13;4.40;;;;;;;;;;1790303;80;21148;-82
2021/01/25 03:29:06;;;;;;;4.47;2.65;;;;;;;;;;1790229;80;21197;-82
2021/01/25 03:31:32;;;;;;;7.75;4.22;;;;;;;;;;1790201;80;21609;-82
2021/01/25 03:33:59;;;;;;;7.60;4.00;;;;;;;;;;1790495;80;21294;-84
2021/01/25 03:36:25;;;;;;;7.30;4.25;;;;;;;;;;1790166;80;21188;-83
2021/01/25 03:38:51;;;;;;;5.58;3.60;;;;;;;;;;1790124;80;21157;-83
2021/01/25 03:41:17;;;;;;;6.40;3.75;;;;;;;;;;1790287;80;21719;-82
2021/01/25 03:43:43;;;;;;;8.38;3.75;;;;;;;;;;1790185;80;21589;-83
2021/01/25 03:46:09;;;;;;;7.62;3.90;;;;;;;;;;1768831;80;21172;-83
2021/01/25 03:48:35;;;;;;;7.08;4.17;;;;;;;;;;1763929;81;21189;-83
2021/01/25 03:51:02;;;;;;;6.12;3.50;;;;;;;;;;1764086;81;21156;-83
2021/01/25 03:53:28;;;;;;;6.50;3.62;;;;;;;;;;1764011;81;21205;-83
2021/01/25 03:55:54;;;;;;;5.85;3.60;;;;;;;;;;1763957;81;21184;-83
2021/01/25 03:58:20;;;;;;;6.12;3.62;;;;;;;;;;1763987;81;21178;-83
2021/01/25 04:00:46;;;;;;;5.97;3.80;;;;;;;;;;1762689;81;21622;-82
2021/01/25 04:03:13;;;;;;;5.95;3.42;;;;;;;;;;1747366;81;21156;-83
2021/01/25 04:05:39;;;;;;;6.87;3.80;;;;;;;;;;1764013;81;21130;-83
2021/01/25 04:08:05;;;;;;;5.17;3.58;;;;;;;;;;1763855;81;21581;-83
2021/01/25 04:10:31;;;;;;;8.03;3.72;;;;;;;;;;1764112;81;21162;-83
2021/01/25 04:12:57;;;;;;;8.10;3.52;;;;;;;;;;1763944;81;21189;-83
2021/01/25 04:15:24;;;;;;;5.30;3.52;;;;;;;;;;1764034;81;21158;-84
2021/01/25 04:17:50;;;;;;;7.12;3.60;;;;;;;;;;1763193;81;21134;-83
2021/01/25 04:20:16;;;;;;;8.40;4.05;;;;;;;;;;1763871;81;21166;-83
2021/01/25 04:22:42;;;;;;;5.50;3.58;;;;;;;;;;1763853;81;21624;-83
2021/01/25 04:25:08;;;;;;;7.83;3.50;;;;;;;;;;1764122;81;21215;-84
2021/01/25 04:27:35;;;;;;;8.08;3.50;;;;;;;;;;1763742;81;21166;-82
2021/01/25 04:30:01;;;;;;;5.83;2.85;;;;;;;;;;1763819;81;21580;-82
2021/01/25 04:32:27;;;;;;;6.12;3.80;;;;;;;;;;1763921;81;21193;-83
2021/01/25 04:34:53;;;;;;;7.17;3.62;;;;;;;;;;1763905;81;21153;-83
2021/01/25 04:37:19;;;;;;;5.45;3.72;;;;;;;;;;1763954;81;21135;-82
2021/01/25 04:39:46;;;;;;;6.53;4.08;;;;;;;;;;1763986;81;21166;-81
2021/01/25 04:42:12;;;;;;;4.67;3.27;;;;;;;;;;1763866;81;21161;-82
2021/01/25 04:44:38;;;;;;;8.10;4.03;;;;;;;;;;1764995;80;21177;-81
2021/01/25 04:47:05;;;;;;;6.45;3.62;;;;;;;;;;1786908;80;21129;-82
2021/01/25 04:49:31;;;;;;;5.75;3.37;;;;;;;;;;1786787;80;21150;-82
2021/01/25 04:51:58;;;;;;;5.78;3.30;;;;;;;;;;1786876;80;21209;-82
2021/01/25 04:54:25;;;;;;;6.90;3.30;;;;;;;;;;1786835;80;21169;-81
2021/01/25 04:56:52;;;;;;;6.85;3.83;;;;;;;;;;1786666;80;21161;-82
2021/01/25 04:59:18;;;;;;;4.75;2.90;;;;;;;;;;1786650;80;21192;-82
2021/01/25 05:01:45;;;;;;;7.60;4.45;;;;;;;;;;1786717;80;21175;-82
2021/01/25 05:04:11;;;;;;;6.78;3.98;;;;;;;;;;1787005;80;21165;-83
2021/01/25 05:06:37;;;;;;;6.70;4.03;;;;;;;;;;1786785;80;21173;-82
2021/01/25 05:09:03;;;;;;;7.10;4.05;;;;;;;;;;1786676;80;21157;-81
2021/01/25 05:11:29;;;;;;;7.37;5.00;;;;;;;;;;1786765;80;21557;-82
2021/01/25 05:14:03;;;;;;;11.60;7.03;;;;;;;;;;1786837;80;21133;-83
2021/01/25 05:16:30;;;;;;;10.05;5.20;;;;;;;;;;1785763;80;21161;-83
2021/01/25 05:18:58;;;;;;;7.62;3.67;;;;;;;;;;1787077;80;21153;-82
2021/01/25 05:21:31;;;;;;;3.45;2.30;;;;;;;;;;1786924;80;21584;-83
2021/01/25 05:24:06;;;;;;;3.75;2.95;;;;;;;;;;1786341;80;21220;-82
2021/01/25 05:26:35;;;;;;;6.47;3.72;;;;;;;;;;1785992;80;21612;-82
2021/01/25 05:29:02;;;;;;;5.05;2.98;;;;;;;;;;1786780;80;21207;-83
2021/01/25 05:31:28;;;;;;;5.90;3.60;;;;;;;;;;1786691;80;21130;-82
2021/01/25 05:33:55;;;;;;;6.17;3.10;;;;;;;;;;1787055;80;21181;-82
2021/01/25 05:36:23;;;;;;;5.67;3.20;;;;;;;;;;1786895;80;21150;-82
2021/01/25 05:38:49;;;;;;;4.17;2.62;;;;;;;;;;1787262;80;21126;-82
2021/01/25 05:41:16;;;;;;;6.85;3.47;;;;;;;;;;1786748;80;21165;-83
2021/01/25 05:43:42;;;;;;;5.65;2.85;;;;;;;;;;1786858;80;21220;-83
2021/01/25 05:46:09;;;;;;;6.95;3.35;;;;;;;;;;1786813;80;21177;-83
2021/01/25 05:48:37;;;;;;;7.47;3.55;;;;;;;;;;1786779;80;21235;-81
2021/01/25 05:51:10;;;;;;;7.15;4.20;;;;;;;;;;1786697;80;21149;-83
2021/01/25 05:53:39;;;;;;;8.30;4.00;;;;;;;;;;1786882;80;21169;-83
2021/01/25 05:56:06;;;;;;;7.20;3.75;;;;;;;;;;1786971;80;21530;-84
2021/01/25 05:58:32;;;;;;;6.72;3.80;;;;;;;;;;1786884;80;21157;-82
2021/01/25 06:00:59;;;;;;;6.60;3.72;;;;;;;;;;1786818;80;21181;-82
2021/01/25 06:03:25;;;;;;;7.17;3.47;;;;;;;;;;1786840;80;21157;-82
2021/01/25 06:05:51;;;;;;;6.17;3.40;;;;;;;;;;1786803;80;21149;-82
2021/01/25 06:08:28;;;;;;;9.30;3.80;;;;;;;;;;1786695;80;21158;-83
2021/01/25 06:11:08;;;;;;;5.60;3.47;;;;;;;;;;1786933;80;21188;-83
2021/01/25 06:13:52;;;;;;;9.00;3.80;;;;;;;;;;1786750;80;21173;-83
2021/01/25 06:16:20;;;;;;;7.50;4.47;;;;;;;;;;1787205;80;21169;-83
2021/01/25 06:18:46;;;;;;;9.83;4.08;;;;;;;;;;1785998;80;21184;-83
2021/01/25 06:21:16;;;;;;;10.48;5.10;;;;;;;;;;1786852;80;21133;-83
2021/01/25 06:23:43;;;;;;;7.70;3.87;;;;;;;;;;1787047;80;21164;-82
2021/01/25 06:26:09;;;;;;;7.20;3.95;;;;;;;;;;1786854;80;21588;-82
2021/01/25 06:28:35;;;;;;;7.47;3.65;;;;;;;;;;1786757;80;21156;-82
2021/01/25 06:31:01;;;;;;;10.68;4.10;;;;;;;;;;1786905;80;21573;-83
2021/01/25 06:33:27;;;;;;;17.25;7.85;;;;;;;;;;1756321;80;21172;-83
2021/01/25 06:35:53;;;;;;;10.13;4.70;;;;;;;;;;1786894;80;21589;-83
2021/01/25 06:38:20;;;;;;;8.30;3.37;;;;;;;;;;1786700;80;21110;-83
2021/01/25 06:40:47;;;;;;;7.55;3.52;;;;;;;;;;1787016;80;21211;-82
2021/01/25 06:43:14;;;;;;;2.85;1.62;;;;;;;;;;1786861;80;21576;-82
2021/01/25 06:45:44;;;;;;;4.00;2.12;;;;;;;;;;1786899;80;21176;-82
2021/01/25 06:48:11;;;;;;;9.03;1.62;;;;;;;;;;1787016;80;21628;-82
2021/01/25 06:50:37;;;;;;;3.30;1.30;;;;;;;;;;1786964;80;21572;-82
2021/01/25 06:53:04;;;;;;;1.52;1.02;;;;;;;;;;1786914;80;21133;-83
2021/01/25 06:55:33;;;;;;;0.68;0.50;;;;;;;;;;1786992;80;21581;-81
2021/01/25 06:58:05;;;;;;;1.07;0.70;;;;;;;;;;1786831;80;21211;-84
2021/01/25 07:00:34;;;;;;;2.20;0.80;;;;;;;;;;1787162;80;21600;-82
2021/01/25 07:03:02;;;;;;;0.93;0.65;;;;;;;;;;1786037;80;21612;-82
2021/01/25 07:05:32;;;;;;;1.57;0.80;;;;;;;;;;1768809;80;21603;-83
2021/01/25 07:08:16;;;;;;;0.55;0.40;;;;;;;;;;1774098;80;21151;-82
2021/01/25 07:11:00;;;;;;;1.05;0.42;;;;;;;;;;1776511;80;21616;-82
2021/01/25 07:13:27;;;;;;;0.62;0.47;;;;;;;;;;1782952;80;21596;-82
2021/01/25 07:15:58;;;;;;;1.85;1.00;;;;;;;;;;1781064;80;21199;-84
2021/01/25 07:18:25;;;;;;;0.45;0.42;;;;;;;;;;1781135;80;21128;-82
2021/01/25 07:20:56;;;;;;;0.95;0.78;;;;;;;;;;1785023;80;21102;-82
2021/01/25 07:23:25;;;;;;;0.20;0.20;;;;;;;;;;1781496;80;21600;-83
2021/01/25 07:25:58;;;;;;;0.10;0.10;;;;;;;;;;1786292;80;21597;-81
2021/01/25 07:28:39;;;;;;;0.30;0.30;;;;;;;;;;1794164;79;21145;-82
2021/01/25 07:30:57;;;;;;;0.40;0.23;;;;;;;;;;1767932;79;21133;-81
2021/01/25 07:33:23;;;;;;;0.10;0.00;;;;;;;;;;1778699;80;21152;-83
2021/01/25 07:35:49;;;;;;;0.20;0.10;;;;;;;;;;1782554;80;21561;-86
2021/01/25 07:38:15;;;;;;;0.10;0.10;;;;;;;;;;1783579;80;21169;-81
2021/01/25 07:40:45;;;;;;;0.20;0.20;;;;;;;;;;1786459;80;21180;-79
2021/01/25 07:43:13;;;;;;;0.17;0.10;;;;;;;;;;1786138;80;21126;-80
2021/01/25 07:45:40;;;;;;;0.10;0.10;;;;;;;;;;1786947;80;21189;-80
2021/01/25 07:48:08;;;;;;;1.47;0.40;;;;;;;;;;1787196;80;21138;-80
2021/01/25 07:50:34;;;;;;;0.30;0.25;;;;;;;;;;1786917;80;21592;-79
2021/01/25 07:53:01;;;;;;;0.30;0.23;;;;;;;;;;1786950;80;21188;-81
2021/01/25 07:55:27;;;;;;;0.40;0.40;;;;;;;;;;1787086;80;21157;-80
2021/01/25 07:57:55;;;;;;;0.57;0.40;;;;;;;;;;1786863;80;21196;-80
2021/01/25 08:00:22;;;;;;;1.20;0.23;;;;;;;;;;1787019;80;21588;-80
2021/01/25 08:02:50;;;;;;;0.20;0.20;;;;;;;;;;1787236;80;21184;-80
2021/01/25 08:05:16;;;;;;;2.72;0.20;;;;;;;;;;1785650;80;21157;-80
2021/01/25 08:07:43;;;;;;;0.13;0.10;;;;;;;;;;1786907;80;21175;-80
2021/01/25 08:10:10;;;;;;;0.13;0.10;;;;;;;;;;1786755;80;21122;-80
2021/01/25 08:12:36;;;;;;;0.20;0.20;;;;;;;;;;1787116;80;21569;-79
2021/01/25 08:15:04;;;;;;;0.55;0.10;;;;;;;;;;1787068;80;21188;-81
2021/01/25 08:17:32;;;;;;;0.65;0.20;;;;;;;;;;1786637;80;21624;-80
2021/01/25 08:20:04;;;;;;;0.33;0.20;;;;;;;;;;1786758;80;21185;-80
2021/01/25 08:22:35;;;;;;;0.47;0.30;;;;;;;;;;1786763;80;21130;-80
2021/01/25 08:25:01;;;;;;;0.93;0.20;;;;;;;;;;1786829;80;21160;-80
2021/01/25 08:27:40;;;;;;;;;;;;;;;;;;;;;
2021/01/25 08:30:43;;;;;;;1.32;0.37;;;;;;;;;;1772479;80;21165;-80
2021/01/25 08:33:02;;;;;;;0.30;0.25;;;;;;;;;;1778621;80;21605;-80
2021/01/25 08:36:40;;;;;;;1.17;0.40;;;;;;;;;;1771742;80;21567;-81
2021/01/25 08:38:42;;;;;;;;;;;;;;;;;;;;;
2021/01/25 08:41:59;;;;;;;;;;;;;;;;;;;;;
2021/01/25 08:59:44;;;;;;;0.55;0.20;;;;;;;;;;1824007;77;22858;-79
2021/01/25 09:02:12;;;;;;;2.10;0.33;;;;;;;;;;1828242;78;21294;-78
2021/01/25 09:04:38;;;;;;;1.85;0.20;;;;;;;;;;1828042;78;21137;-79
2021/01/25 09:07:06;;;;;;;0.20;0.20;;;;;;;;;;1828293;78;21189;-79
2021/01/25 09:09:33;;;;;;;0.20;0.20;;;;;;;;;;1827939;78;21637;-80
2021/01/25 09:12:00;;;;;;;0.20;0.20;;;;;;;;;;1828258;78;21572;-80
2021/01/25 09:14:26;;;;;;;0.30;0.30;;;;;;;;;;1827973;78;21263;-80
2021/01/25 09:16:52;;;;;;;0.70;0.20;;;;;;;;;;1827834;78;21546;-80
2021/01/25 09:19:18;;;;;;;1.07;0.25;;;;;;;;;;1828064;78;21267;-80
2021/01/25 09:21:45;;;;;;;2.12;0.30;;;;;;;;;;1827884;78;21198;-80
2021/01/25 09:24:11;;;;;;;0.25;0.20;;;;;;;;;;1828060;78;21565;-80
2021/01/25 09:26:37;;;;;;;0.93;0.35;;;;;;;;;;1828232;78;21291;-80
2021/01/25 09:29:03;;;;;;;0.90;0.30;;;;;;;;;;1827897;78;21597;-79
2021/01/25 09:31:29;;;;;;;0.10;0.10;;;;;;;;;;1828331;78;21153;-79
2021/01/25 09:33:56;;;;;;;0.05;0.05;;;;;;;;;;1827865;78;21153;-80
2021/01/25 09:36:22;;;;;;;0.40;0.30;;;;;;;;;;1828109;78;21311;-81
2021/01/25 09:38:50;;;;;;;1.40;0.20;;;;;;;;;;1827852;78;21177;-80
2021/01/25 09:41:19;;;;;;;0.30;0.30;;;;;;;;;;1828190;78;21191;-80
2021/01/25 09:43:45;;;;;;;0.37;0.20;;;;;;;;;;1828121;78;21294;-81
2021/01/25 09:46:11;;;;;;;0.28;0.23;;;;;;;;;;1827987;78;21577;-80
2021/01/25 09:48:37;;;;;;;1.10;0.20;;;;;;;;;;1828131;78;21180;-81
2021/01/25 09:51:04;;;;;;;0.40;0.20;;;;;;;;;;1827995;78;21177;-79
2021/01/25 09:53:30;;;;;;;0.10;0.10;;;;;;;;;;1828357;78;21129;-80
2021/01/25 09:55:57;;;;;;;0.75;0.30;;;;;;;;;;1827923;78;21593;-80
2021/01/25 09:58:23;;;;;;;0.30;0.20;;;;;;;;;;1825122;78;21173;-80
2021/01/25 10:00:52;;;;;;;0.37;0.10;;;;;;;;;;1819402;79;21735;-79
2021/01/25 10:03:18;;;;;;;0.53;0.13;;;;;;;;;;1819442;79;21323;-80
2021/01/25 10:05:46;;;;;;;0.45;0.30;;;;;;;;;;1819703;79;21153;-80
2021/01/25 10:08:12;;;;;;;0.33;0.10;;;;;;;;;;1819422;79;21296;-80
2021/01/25 10:10:38;;;;;;;2.10;0.40;;;;;;;;;;1819277;79;21209;-79
2021/01/25 10:13:05;;;;;;;0.28;0.20;;;;;;;;;;1819322;79;21291;-80
2021/01/25 10:15:33;;;;;;;0.45;0.30;;;;;;;;;;1818882;79;21150;-79
2021/01/25 10:18:00;;;;;;;0.30;0.30;;;;;;;;;;1818846;79;21182;-80
2021/01/25 10:20:27;;;;;;;13.05;0.45;;;;;;;;;;1818856;79;21142;-81
2021/01/25 10:22:53;;;;;;;3.83;0.17;;;;;;;;;;1818899;79;21161;-79
2021/01/25 10:25:19;;;;;;;0.70;0.47;;;;;;;;;;1818955;79;21141;-81
2021/01/25 10:27:45;;;;;;;0.30;0.20;;;;;;;;;;1819057;79;21125;-81
2021/01/25 10:30:13;;;;;;;1.92;0.40;;;;;;;;;;1818803;79;21585;-81
2021/01/25 10:32:39;;;;;;;1.00;0.42;;;;;;;;;;1818843;79;21133;-79
2021/01/25 10:35:06;;;;;;;0.47;0.20;;;;;;;;;;1819058;79;21142;-80
2021/01/25 10:37:33;;;;;;;0.20;0.20;;;;;;;;;;1819198;79;21565;-80
2021/01/25 10:39:59;;;;;;;2.50;0.47;;;;;;;;;;1819093;79;21165;-80
2021/01/25 10:42:25;;;;;;;0.40;0.40;;;;;;;;;;1819245;79;21149;-81
2021/01/25 10:44:51;;;;;;;0.28;0.20;;;;;;;;;;1818865;79;21625;-80
2021/01/25 10:47:21;;;;;;;0.42;0.28;;;;;;;;;;1819320;79;21283;-81
2021/01/25 10:49:50;;;;;;;0.40;0.40;;;;;;;;;;1818974;79;21148;-79
2021/01/25 10:52:18;;;;;;;0.47;0.35;;;;;;;;;;1818662;79;21133;-80
2021/01/25 10:54:43;;;;;;;1.42;0.40;;;;;;;;;;1818963;79;21153;-80
2021/01/25 10:57:09;;;;;;;1.95;0.80;;;;;;;;;;1819112;79;21569;-79
2021/01/25 10:59:36;;;;;;;0.50;0.50;;;;;;;;;;1818758;79;21134;-80
2021/01/25 11:02:03;;;;;;;0.68;0.42;;;;;;;;;;1819043;79;21192;-79
2021/01/25 11:04:29;;;;;;;0.57;0.30;;;;;;;;;;1818979;79;21546;-80
2021/01/25 11:06:55;;;;;;;0.17;0.15;;;;;;;;;;1818941;79;21154;-80
2021/01/25 11:09:21;;;;;;;0.62;0.30;;;;;;;;;;1818982;79;21145;-80
2021/01/25 11:11:48;;;;;;;0.60;0.40;;;;;;;;;;1819067;79;21153;-80
2021/01/25 11:14:18;;;;;;;2.55;0.50;;;;;;;;;;1818892;79;21189;-79
2021/01/25 11:16:42;;;;;;;0.35;0.35;;;;;;;;;;1818121;79;21141;-79
2021/01/25 11:19:08;;;;;;;3.37;0.68;;;;;;;;;;1819195;79;21185;-81
2021/01/25 11:21:35;;;;;;;1.85;0.50;;;;;;;;;;1818852;79;21145;-80
2021/01/25 11:24:01;;;;;;;0.68;0.42;;;;;;;;;;1818921;79;21546;-79
2021/01/25 11:26:28;;;;;;;1.27;0.70;;;;;;;;;;1819261;79;21271;-81
2021/01/25 11:28:56;;;;;;;0.70;0.60;;;;;;;;;;1818882;79;21162;-80
2021/01/25 11:31:22;;;;;;;1.50;0.80;;;;;;;;;;1818875;79;21161;-80
2021/01/25 11:33:48;;;;;;;2.27;0.82;;;;;;;;;;1819207;79;21150;-80
2021/01/25 11:36:14;;;;;;;1.10;0.70;;;;;;;;;;1818801;79;21217;-80
2021/01/25 11:38:41;;;;;;;0.80;0.55;;;;;;;;;;1819012;79;21154;-80
2021/01/25 11:41:07;;;;;;;1.30;0.88;;;;;;;;;;1818802;79;21600;-79
2021/01/25 11:43:33;;;;;;;2.80;0.98;;;;;;;;;;1818841;79;21177;-79
2021/01/25 11:45:59;;;;;;;1.55;0.90;;;;;;;;;;1818765;79;21148;-79
2021/01/25 11:48:25;;;;;;;1.27;0.60;;;;;;;;;;1818977;79;21193;-80
2021/01/25 11:50:52;;;;;;;0.57;0.33;;;;;;;;;;1818862;79;21162;-80
2021/01/25 11:53:18;;;;;;;0.93;0.37;;;;;;;;;;1787630;79;21145;-80
2021/01/25 11:55:45;;;;;;;1.07;0.70;;;;;;;;;;1818961;79;21153;-79
2021/01/25 11:58:11;;;;;;;1.37;0.60;;;;;;;;;;1819149;78;21158;-80
2021/01/25 12:00:37;;;;;;;2.77;0.80;;;;;;;;;;1827769;78;21149;-80
2021/01/25 12:03:04;;;;;;;3.00;0.68;;;;;;;;;;1827742;78;21177;-78
2021/01/25 12:05:30;;;;;;;1.00;0.90;;;;;;;;;;1827805;78;21611;-80
2021/01/25 12:07:59;;;;;;;1.52;0.57;;;;;;;;;;1828090;78;21189;-79
2021/01/25 12:10:26;;;;;;;2.90;0.80;;;;;;;;;;1827797;78;21152;-81
2021/01/25 12:12:52;;;;;;;1.82;0.68;;;;;;;;;;1827685;78;21200;-80
2021/01/25 12:15:18;;;;;;;3.55;1.00;;;;;;;;;;1827677;78;21533;-80
2021/01/25 12:17:51;;;;;;;1.05;0.80;;;;;;;;;;1827958;78;21671;-80
2021/01/25 12:20:17;;;;;;;5.50;1.22;;;;;;;;;;1827778;78;21172;-80
2021/01/25 12:22:44;;;;;;;1.30;0.90;;;;;;;;;;1828191;78;21315;-82
2021/01/25 12:25:12;;;;;;;0.90;0.68;;;;;;;;;;1827667;78;21545;-80
2021/01/25 12:27:38;;;;;;;1.27;0.88;;;;;;;;;;1827734;78;21129;-80
2021/01/25 12:30:06;;;;;;;1.72;0.88;;;;;;;;;;1827717;78;21145;-80
2021/01/25 12:32:33;;;;;;;1.40;0.93;;;;;;;;;;1827833;78;21141;-81
2021/01/25 12:35:01;;;;;;;1.55;0.80;;;;;;;;;;1827693;78;21122;-80
2021/01/25 12:37:27;;;;;;;2.77;0.75;;;;;;;;;;1827658;78;21125;-80
2021/01/25 12:39:53;;;;;;;2.62;0.70;;;;;;;;;;1827859;78;21592;-80
2021/01/25 12:42:19;;;;;;;1.07;0.85;;;;;;;;;;1827732;78;21597;-79
2021/01/25 12:44:48;;;;;;;3.15;1.07;;;;;;;;;;1827861;78;21164;-81
2021/01/25 12:47:14;;;;;;;1.67;0.93;;;;;;;;;;1827603;78;21172;-79
2021/01/25 12:49:40;;;;;;;2.52;0.57;;;;;;;;;;1827836;78;21156;-79
2021/01/25 12:52:06;;;;;;;1.77;0.72;;;;;;;;;;1827683;78;21133;-80
2021/01/25 12:54:33;;;;;;;1.92;0.75;;;;;;;;;;1827862;78;21144;-80
2021/01/25 12:56:59;;;;;;;1.75;0.70;;;;;;;;;;1827668;78;21572;-80
2021/01/25 12:59:25;;;;;;;1.10;0.68;;;;;;;;;;1827747;78;21156;-79
2021/01/25 13:01:51;;;;;;;1.67;0.88;;;;;;;;;;1827924;78;21157;-79
2021/01/25 13:04:18;;;;;;;0.95;0.75;;;;;;;;;;1827988;78;21746;-79
2021/01/25 13:06:44;;;;;;;4.70;0.93;;;;;;;;;;1827795;78;21165;-80
2021/01/25 13:09:10;;;;;;;0.78;0.55;;;;;;;;;;1827724;78;21173;-79
2021/01/25 13:11:37;;;;;;;1.45;0.72;;;;;;;;;;1827704;78;21166;-80
2021/01/25 13:14:03;;;;;;;5.03;1.37;;;;;;;;;;1828032;78;21160;-80
2021/01/25 13:16:30;;;;;;;1.00;0.70;;;;;;;;;;1827862;78;21208;-79
2021/01/25 13:18:56;;;;;;;7.35;0.98;;;;;;;;;;1827602;78;21584;-80
2021/01/25 13:21:22;;;;;;;0.30;0.30;;;;;;;;;;1827637;78;21141;-80
2021/01/25 13:23:48;;;;;;;2.08;0.88;;;;;;;;;;1828114;78;21275;-80
2021/01/25 13:26:15;;;;;;;1.50;0.72;;;;;;;;;;1827810;78;21152;-80
2021/01/25 13:28:41;;;;;;;1.42;1.00;;;;;;;;;;1827790;78;21144;-79
2021/01/25 13:31:07;;;;;;;0.80;0.70;;;;;;;;;;1827752;78;21117;-80
2021/01/25 13:33:33;;;;;;;4.78;1.52;;;;;;;;;;1827613;78;21223;-80
2021/01/25 13:35:59;;;;;;;5.60;0.90;;;;;;;;;;1827933;78;21122;-79
2021/01/25 13:38:26;;;;;;;2.10;0.93;;;;;;;;;;1795697;78;21133;-80
2021/01/25 13:40:52;;;;;;;1.95;0.93;;;;;;;;;;1795833;80;21164;-82
2021/01/25 13:43:18;;;;;;;3.02;1.15;;;;;;;;;;1795234;80;21153;-80
2021/01/25 13:45:45;;;;;;;3.02;0.98;;;;;;;;;;1795799;80;21176;-83
2021/01/25 13:48:13;;;;;;;2.02;1.20;;;;;;;;;;1795499;80;21607;-80
2021/01/25 13:50:40;;;;;;;4.45;0.80;;;;;;;;;;1795421;80;21172;-82
2021/01/25 13:53:06;;;;;;;1.27;0.70;;;;;;;;;;1795827;80;21129;-81
2021/01/25 13:55:32;;;;;;;1.87;1.10;;;;;;;;;;1795559;80;21584;-81
2021/01/25 13:57:59;;;;;;;1.80;1.27;;;;;;;;;;1795462;80;21164;-80
2021/01/25 14:00:26;;;;;;;4.87;2.00;;;;;;;;;;1791545;80;21589;-82
2021/01/25 14:02:52;;;;;;;2.37;1.30;;;;;;;;;;1790292;80;21133;-80
2021/01/25 14:05:18;;;;;;;1.35;0.80;;;;;;;;;;1790309;80;21596;-80
2021/01/25 14:07:45;;;;;;;2.52;1.85;;;;;;;;;;1790381;80;21205;-79
2021/01/25 14:10:11;;;;;;;1.67;1.17;;;;;;;;;;1790064;80;21561;-81
2021/01/25 14:12:38;;;;;;;1.35;1.00;;;;;;;;;;1790312;80;21156;-80
2021/01/25 14:15:04;;;;;;;6.83;1.40;;;;;;;;;;1790440;80;21184;-80
2021/01/25 14:17:31;;;;;;;2.05;1.25;;;;;;;;;;1790018;80;21149;-79
2021/01/25 14:19:57;;;;;;;3.40;1.30;;;;;;;;;;1790138;80;21605;-80
2021/01/25 14:22:23;;;;;;;1.50;1.30;;;;;;;;;;1790269;80;21164;-79
2021/01/25 14:24:50;;;;;;;2.33;1.55;;;;;;;;;;1790297;80;21165;-79
2021/01/25 14:27:16;;;;;;;2.45;1.80;;;;;;;;;;1790246;80;21193;-79
2021/01/25 14:29:42;;;;;;;2.37;1.65;;;;;;;;;;1790204;80;21150;-79
2021/01/25 14:32:09;;;;;;;2.52;1.72;;;;;;;;;;1790416;80;21137;-79
2021/01/25 14:34:38;;;;;;;3.00;2.20;;;;;;;;;;1790577;80;21552;-79
2021/01/25 14:37:04;;;;;;;3.85;1.70;;;;;;;;;;1763925;80;21577;-79
2021/01/25 14:39:31;;;;;;;3.42;2.37;;;;;;;;;;1790419;80;21298;-80
2021/01/25 14:41:59;;;;;;;2.62;2.33;;;;;;;;;;1790020;80;21149;-79
2021/01/25 14:44:26;;;;;;;5.47;2.42;;;;;;;;;;1790274;80;21121;-79
2021/01/25 14:46:53;;;;;;;3.40;2.50;;;;;;;;;;1790048;80;21126;-79
2021/01/25 14:49:23;;;;;;;7.37;3.25;;;;;;;;;;1790213;80;21577;-79
2021/01/25 14:51:49;;;;;;;7.53;2.72;;;;;;;;;;1790187;80;21584;-79
2021/01/25 14:54:15;;;;;;;4.75;2.60;;;;;;;;;;1790405;80;21161;-80
2021/01/25 14:56:42;;;;;;;4.75;3.40;;;;;;;;;;1790262;80;21298;-80
2021/01/25 14:59:08;;;;;;;3.67;2.90;;;;;;;;;;1789140;80;21201;-79
2021/01/25 15:01:35;;;;;;;4.62;2.80;;;;;;;;;;1790254;80;21157;-80